createdAt,value
2018-11-07T00:00:15.760Z,991.4
2018-11-07T00:03:15.509Z,991.5
2018-11-07T00:06:15.888Z,991.6
2018-11-07T00:09:15.100Z,991.6
2018-11-07T00:12:15.206Z,991.6
2018-11-07T00:15:15.405Z,991.5
2018-11-07T00:18:15.670Z,991.6
2018-11-07T00:21:15.081Z,991.5
2018-11-07T00:24:15.623Z,991.5
2018-11-07T00:27:15.282Z,991.5
2018-11-07T00:30:15.406Z,991.5
2018-11-07T00:33:15.610Z,991.5
2018-11-07T00:36:15.922Z,991.5
2018-11-07T00:39:15.609Z,991.6
2018-11-07T00:42:15.222Z,991.6
2018-11-07T00:45:15.070Z,991.7
2018-11-07T00:48:15.253Z,991.7
2018-11-07T00:51:15.546Z,991.7
2018-11-07T00:54:15.866Z,991.6
2018-11-07T00:57:15.354Z,991.6
2018-11-07T01:00:15.681Z,991.5
2018-11-07T01:03:15.816Z,991.6
2018-11-07T01:06:15.037Z,991.6
2018-11-07T01:09:20.238Z,991.5
2018-11-07T01:12:15.103Z,991.6
2018-11-07T01:15:15.138Z,991.6
2018-11-07T01:18:15.320Z,991.6
2018-11-07T01:21:15.477Z,991.7
2018-11-07T01:24:15.614Z,991.7
2018-11-07T01:27:15.802Z,991.6
2018-11-07T01:30:15.036Z,991.6
2018-11-07T01:33:14.916Z,991.6
2018-11-07T01:36:15.920Z,991.7
2018-11-07T01:39:15.800Z,991.6
2018-11-07T01:42:15.106Z,991.7
2018-11-07T01:45:15.220Z,991.6
2018-11-07T01:48:15.633Z,991.6
2018-11-07T01:51:14.936Z,991.6
2018-11-07T01:54:15.993Z,991.6
2018-11-07T01:57:15.197Z,991.6
2018-11-07T02:00:15.380Z,991.5
2018-11-07T02:03:15.012Z,991.4
2018-11-07T02:06:15.470Z,991.4
2018-11-07T02:09:15.522Z,991.4
2018-11-07T02:12:15.683Z,991.3
2018-11-07T02:15:15.016Z,991.3
2018-11-07T02:18:15.976Z,991.3
2018-11-07T02:21:15.235Z,991.3
2018-11-07T02:24:15.458Z,991.3
2018-11-07T02:27:15.665Z,991.3
2018-11-07T02:30:15.101Z,991.3
2018-11-07T02:33:15.461Z,991.4
2018-11-07T02:36:15.744Z,991.4
2018-11-07T02:39:14.896Z,991.4
2018-11-07T02:42:15.951Z,991.4
2018-11-07T02:45:15.266Z,991.4
2018-11-07T02:48:15.687Z,991.5
2018-11-07T02:51:15.862Z,991.5
2018-11-07T02:54:15.390Z,991.5
2018-11-07T02:57:15.373Z,991.5
2018-11-07T03:00:15.747Z,991.5
2018-11-07T03:03:15.108Z,991.6
2018-11-07T03:06:15.325Z,991.6
2018-11-07T03:09:15.835Z,991.6
2018-11-07T03:12:15.076Z,991.6
2018-11-07T03:15:15.129Z,991.5
2018-11-07T03:18:15.648Z,991.4
2018-11-07T03:21:15.930Z,991.5
2018-11-07T03:24:15.275Z,991.5
2018-11-07T03:27:15.379Z,991.4
2018-11-07T03:30:15.628Z,991.5
2018-11-07T03:33:15.791Z,991.4
2018-11-07T03:36:15.264Z,991.3
2018-11-07T03:39:15.420Z,991.3
2018-11-07T03:42:15.732Z,991.4
2018-11-07T03:45:15.037Z,991.4
2018-11-07T03:48:15.589Z,991.4
2018-11-07T03:51:15.492Z,991.3
2018-11-07T03:54:15.840Z,991.3
2018-11-07T03:57:15.371Z,991.3
2018-11-07T04:00:15.813Z,991.4
2018-11-07T04:03:15.314Z,991.5
2018-11-07T04:06:15.663Z,991.6
2018-11-07T04:09:15.276Z,991.5
2018-11-07T04:12:15.547Z,991.5
2018-11-07T04:15:15.155Z,991.5
2018-11-07T04:18:15.684Z,991.5
2018-11-07T04:21:15.946Z,991.5
2018-11-07T04:24:15.076Z,991.5
2018-11-07T04:27:15.008Z,991.5
2018-11-07T04:30:15.415Z,991.5
2018-11-07T04:33:15.851Z,991.5
2018-11-07T04:36:15.276Z,991.5
2018-11-07T04:39:15.989Z,991.5
2018-11-07T04:42:15.536Z,991.5
2018-11-07T04:45:15.528Z,991.6
2018-11-07T04:48:15.671Z,991.5
2018-11-07T04:51:15.094Z,991.6
2018-11-07T04:54:15.204Z,991.5
2018-11-07T04:57:15.302Z,991.6
2018-11-07T05:00:15.797Z,991.6
2018-11-07T05:03:15.435Z,991.6
2018-11-07T05:06:15.714Z,991.5
2018-11-07T05:09:15.012Z,991.5
2018-11-07T05:12:15.119Z,991.6
2018-11-07T05:15:15.206Z,991.6
2018-11-07T05:18:15.216Z,991.6
2018-11-07T05:21:15.024Z,991.6
2018-11-07T05:24:15.144Z,991.7
2018-11-07T05:27:15.600Z,991.7
2018-11-07T05:30:15.833Z,991.8
2018-11-07T05:33:15.639Z,991.8
2018-11-07T05:36:15.100Z,991.8
2018-11-07T05:39:15.152Z,991.9
2018-11-07T05:42:15.322Z,992.0
2018-11-07T05:45:16.041Z,991.9
2018-11-07T05:48:15.894Z,991.8
2018-11-07T05:51:15.842Z,991.8
2018-11-07T05:54:16.289Z,991.8
2018-11-07T05:57:15.016Z,991.9
2018-11-07T06:00:16.140Z,991.9
2018-11-07T06:03:15.723Z,991.9
2018-11-07T06:06:15.382Z,992.0
2018-11-07T06:09:15.880Z,992.1
2018-11-07T06:12:15.041Z,992.1
2018-11-07T06:15:15.053Z,992.1
2018-11-07T06:18:15.584Z,992.0
2018-11-07T06:21:15.109Z,992.1
2018-11-07T06:24:15.137Z,992.1
2018-11-07T06:27:15.278Z,992.1
2018-11-07T06:30:15.703Z,992.0
2018-11-07T06:33:15.082Z,992.0
2018-11-07T06:36:15.058Z,992.0
2018-11-07T06:39:14.996Z,992.0
2018-11-07T06:42:15.065Z,992.0
2018-11-07T06:45:15.999Z,992.1
2018-11-07T06:48:15.318Z,992.1
2018-11-07T06:51:15.877Z,992.1
2018-11-07T06:54:15.417Z,992.1
2018-11-07T06:57:15.952Z,992.1
2018-11-07T07:00:15.271Z,992.1
2018-11-07T07:03:15.447Z,992.2
2018-11-07T07:06:15.859Z,992.2
2018-11-07T07:09:15.705Z,992.2
2018-11-07T07:12:15.102Z,992.2
2018-11-07T07:15:15.523Z,992.2
2018-11-07T07:18:15.235Z,992.2
2018-11-07T07:21:15.819Z,992.3
2018-11-07T07:24:15.190Z,992.3
2018-11-07T07:27:15.331Z,992.3
2018-11-07T07:30:16.140Z,992.3
2018-11-07T07:33:15.306Z,992.3
2018-11-07T07:36:15.036Z,992.3
2018-11-07T07:39:15.252Z,992.3
2018-11-07T07:42:15.320Z,992.3
2018-11-07T07:45:15.708Z,992.3
2018-11-07T07:48:15.415Z,992.3
2018-11-07T07:51:15.817Z,992.4
2018-11-07T07:54:15.278Z,992.4
2018-11-07T07:57:15.198Z,992.4
2018-11-07T08:00:15.263Z,992.4
2018-11-07T08:03:15.718Z,992.3
2018-11-07T08:06:15.025Z,992.3
2018-11-07T08:09:15.111Z,992.4
2018-11-07T08:12:15.419Z,992.4
2018-11-07T08:15:15.947Z,992.4
2018-11-07T08:18:15.339Z,992.5
2018-11-07T08:21:15.598Z,992.4
2018-11-07T08:24:15.840Z,992.4
2018-11-07T08:27:15.454Z,992.3
2018-11-07T08:30:15.329Z,992.4
2018-11-07T08:33:14.945Z,992.3
2018-11-07T08:36:17.073Z,992.4
2018-11-07T08:39:16.017Z,992.4
2018-11-07T08:42:15.539Z,992.4
2018-11-07T08:45:15.406Z,992.3
2018-11-07T08:48:15.053Z,992.4
2018-11-07T08:51:15.250Z,992.4
2018-11-07T08:54:15.464Z,992.4
2018-11-07T08:57:15.005Z,992.4
2018-11-07T09:00:15.055Z,992.3
2018-11-07T09:03:15.213Z,992.3
2018-11-07T09:06:15.314Z,992.4
2018-11-07T09:09:15.264Z,992.3
2018-11-07T09:12:15.570Z,992.3
2018-11-07T09:15:15.030Z,992.3
2018-11-07T09:18:15.254Z,992.4
2018-11-07T09:21:15.543Z,992.3
2018-11-07T09:24:15.987Z,992.4
2018-11-07T09:27:15.118Z,992.4
2018-11-07T09:30:15.594Z,992.5
2018-11-07T09:33:15.176Z,992.4
2018-11-07T09:36:15.158Z,992.4
2018-11-07T09:39:15.367Z,992.4
2018-11-07T09:42:15.735Z,992.4
2018-11-07T09:45:16.003Z,992.4
2018-11-07T09:48:15.777Z,992.4
2018-11-07T09:51:15.504Z,992.4
2018-11-07T09:54:15.794Z,992.4
2018-11-07T09:57:15.034Z,992.5
2018-11-07T10:00:15.446Z,992.4
2018-11-07T10:03:15.776Z,992.4
2018-11-07T10:06:15.297Z,992.4
2018-11-07T10:09:15.918Z,992.4
2018-11-07T10:12:15.376Z,992.4
2018-11-07T10:15:15.246Z,992.3
2018-11-07T10:18:15.600Z,992.3
2018-11-07T10:21:15.045Z,992.4
2018-11-07T10:24:15.292Z,992.3
2018-11-07T10:27:15.342Z,992.3
2018-11-07T10:30:16.211Z,992.3
2018-11-07T10:33:15.549Z,992.3
2018-11-07T10:36:15.155Z,992.2
2018-11-07T10:39:15.125Z,992.2
2018-11-07T10:42:15.506Z,992.2
2018-11-07T10:45:15.732Z,992.2
2018-11-07T10:48:15.137Z,992.2
2018-11-07T10:51:15.556Z,992.2
2018-11-07T10:54:15.858Z,992.2
2018-11-07T10:57:15.287Z,992.2
2018-11-07T11:00:15.152Z,992.1
2018-11-07T11:03:15.825Z,992.1
2018-11-07T11:06:15.519Z,992.1
2018-11-07T11:09:15.076Z,992.1
2018-11-07T11:12:15.264Z,992.1
2018-11-07T11:15:15.804Z,992.1
2018-11-07T11:18:15.577Z,992.1
2018-11-07T11:21:15.007Z,992.1
2018-11-07T11:24:14.957Z,992.0
2018-11-07T11:27:15.125Z,992.1
2018-11-07T11:30:15.035Z,992.0
2018-11-07T11:33:15.057Z,992.0
2018-11-07T11:36:15.012Z,992.0
2018-11-07T11:39:15.222Z,992.0
2018-11-07T11:42:15.394Z,992.0
2018-11-07T11:45:15.750Z,991.9
2018-11-07T11:48:15.135Z,991.9
2018-11-07T11:51:15.383Z,991.9
2018-11-07T11:54:15.553Z,991.9
2018-11-07T11:57:15.251Z,991.8
2018-11-07T12:00:15.219Z,991.9
2018-11-07T12:03:15.076Z,991.8
2018-11-07T12:06:15.043Z,991.8
2018-11-07T12:09:15.628Z,991.8
2018-11-07T12:12:15.918Z,991.7
2018-11-07T12:15:15.592Z,991.7
2018-11-07T12:18:15.908Z,991.6
2018-11-07T12:21:15.107Z,991.6
2018-11-07T12:24:15.238Z,991.6
2018-11-07T12:27:15.379Z,991.5
2018-11-07T12:30:15.160Z,991.5
2018-11-07T12:33:15.341Z,991.5
2018-11-07T12:36:15.500Z,991.6
2018-11-07T12:39:15.361Z,991.5
2018-11-07T12:42:15.517Z,991.5
2018-11-07T12:45:15.050Z,991.5
2018-11-07T12:48:15.184Z,991.4
2018-11-07T12:51:15.344Z,991.4
2018-11-07T12:54:15.392Z,991.4
2018-11-07T12:57:15.688Z,991.4
2018-11-07T13:00:15.632Z,991.4
2018-11-07T13:03:15.316Z,991.4
2018-11-07T13:06:15.427Z,991.5
2018-11-07T13:09:15.412Z,991.5
2018-11-07T13:12:15.003Z,991.6
2018-11-07T13:15:15.154Z,991.5
2018-11-07T13:18:15.556Z,991.6
2018-11-07T13:21:15.900Z,991.6
2018-11-07T13:24:15.420Z,991.6
2018-11-07T13:27:15.077Z,991.6
2018-11-07T13:30:14.947Z,991.6
2018-11-07T13:33:15.321Z,991.6
2018-11-07T13:36:15.647Z,991.6
2018-11-07T13:39:16.455Z,991.6
2018-11-07T13:42:15.343Z,991.6
2018-11-07T13:45:15.584Z,991.6
2018-11-07T13:48:15.393Z,991.6
2018-11-07T13:51:15.677Z,991.6
2018-11-07T13:54:15.234Z,991.6
2018-11-07T13:57:15.291Z,991.7
2018-11-07T14:00:15.245Z,991.7
2018-11-07T14:03:15.442Z,991.7
2018-11-07T14:06:15.276Z,991.7
2018-11-07T14:09:15.938Z,991.8
2018-11-07T14:12:15.296Z,991.9
2018-11-07T14:15:15.330Z,991.8
2018-11-07T14:18:15.537Z,991.8
2018-11-07T14:21:15.224Z,991.8
2018-11-07T14:24:15.177Z,991.9
2018-11-07T14:27:15.329Z,991.9
2018-11-07T14:30:15.385Z,991.9
2018-11-07T14:33:15.215Z,991.9
2018-11-07T14:36:15.470Z,991.9
2018-11-07T14:39:15.654Z,991.9
2018-11-07T14:42:14.989Z,991.9
2018-11-07T14:45:15.319Z,992.1
2018-11-07T14:48:15.364Z,992.1
2018-11-07T14:51:15.458Z,992.2
2018-11-07T14:54:15.959Z,992.1
2018-11-07T14:57:15.777Z,992.2
2018-11-07T15:00:15.234Z,992.2
2018-11-07T15:03:15.370Z,992.2
2018-11-07T15:06:15.616Z,992.3
2018-11-07T15:09:15.084Z,992.3
2018-11-07T15:12:15.217Z,992.3
2018-11-07T15:15:16.017Z,992.3
2018-11-07T15:18:15.473Z,992.3
2018-11-07T15:21:15.417Z,992.4
2018-11-07T15:24:15.533Z,992.4
2018-11-07T15:27:15.814Z,992.4
2018-11-07T15:30:15.104Z,992.4
2018-11-07T15:33:15.277Z,992.4
2018-11-07T15:36:15.424Z,992.4
2018-11-07T15:39:15.765Z,992.3
2018-11-07T15:42:15.491Z,992.4
2018-11-07T15:45:15.052Z,992.4
2018-11-07T15:48:15.157Z,992.5
2018-11-07T15:51:15.223Z,992.5
2018-11-07T15:54:15.250Z,992.5
2018-11-07T15:57:15.579Z,992.5
2018-11-07T16:00:15.663Z,992.4
2018-11-07T16:03:15.886Z,992.4
2018-11-07T16:06:15.830Z,992.5
2018-11-07T16:09:15.417Z,992.6
2018-11-07T16:12:15.544Z,992.6
2018-11-07T16:15:15.618Z,992.6
2018-11-07T16:18:15.932Z,992.6
2018-11-07T16:21:15.082Z,992.7
2018-11-07T16:24:15.217Z,992.8
2018-11-07T16:27:15.631Z,992.8
2018-11-07T16:30:15.185Z,992.9
2018-11-07T16:33:15.255Z,992.9
2018-11-07T16:36:15.062Z,993.0
2018-11-07T16:39:15.381Z,993.1
2018-11-07T16:42:15.370Z,993.1
2018-11-07T16:45:15.837Z,993.2
2018-11-07T16:48:15.761Z,993.3
2018-11-07T16:51:15.555Z,993.4
2018-11-07T16:54:15.428Z,993.4
2018-11-07T16:57:15.918Z,993.5
2018-11-07T17:00:15.178Z,993.6
2018-11-07T17:03:15.313Z,993.6
2018-11-07T17:06:15.312Z,993.7
2018-11-07T17:09:15.448Z,993.7
2018-11-07T17:12:15.830Z,993.8
2018-11-07T17:15:15.473Z,993.9
2018-11-07T17:18:15.854Z,993.9
2018-11-07T17:21:14.972Z,994.0
2018-11-07T17:24:15.251Z,994.0
2018-11-07T17:27:16.004Z,994.1
2018-11-07T17:30:15.486Z,994.1
2018-11-07T17:33:15.324Z,994.2
2018-11-07T17:36:15.601Z,994.2
2018-11-07T17:39:15.754Z,994.2
2018-11-07T17:42:15.802Z,994.3
2018-11-07T17:45:15.717Z,994.3
2018-11-07T17:48:15.903Z,994.3
2018-11-07T17:51:15.854Z,994.4
2018-11-07T17:54:15.502Z,994.5
2018-11-07T17:57:15.794Z,994.5
2018-11-07T18:00:15.091Z,994.5
2018-11-07T18:03:15.906Z,994.5
2018-11-07T18:06:15.272Z,994.5
2018-11-07T18:09:15.624Z,994.5
2018-11-07T18:12:15.063Z,994.5
2018-11-07T18:15:15.317Z,994.5
2018-11-07T18:18:15.779Z,994.6
2018-11-07T18:21:15.678Z,994.6
2018-11-07T18:24:15.670Z,994.6
2018-11-07T18:27:16.142Z,994.6
2018-11-07T18:30:15.513Z,994.6
2018-11-07T18:33:15.839Z,994.6
2018-11-07T18:36:15.068Z,994.6
2018-11-07T18:39:15.265Z,994.7
2018-11-07T18:42:15.378Z,994.8
2018-11-07T18:45:15.692Z,994.8
2018-11-07T18:48:15.695Z,994.8
2018-11-07T18:51:15.989Z,994.8
2018-11-07T18:54:15.395Z,994.9
2018-11-07T18:57:15.484Z,995.0
2018-11-07T19:00:15.510Z,995.0
2018-11-07T19:03:15.483Z,995.0
2018-11-07T19:06:15.609Z,995.1
2018-11-07T19:09:15.909Z,995.1
2018-11-07T19:12:15.082Z,995.1
2018-11-07T19:15:15.676Z,995.1
2018-11-07T19:18:15.925Z,995.1
2018-11-07T19:21:15.454Z,995.0
2018-11-07T19:24:15.568Z,994.9
2018-11-07T19:27:15.554Z,994.9
2018-11-07T19:30:15.854Z,994.8
2018-11-07T19:33:15.264Z,994.8
2018-11-07T19:36:15.333Z,994.8
2018-11-07T19:39:15.557Z,994.9
2018-11-07T19:42:15.651Z,995.0
2018-11-07T19:45:15.795Z,995.0
2018-11-07T19:48:15.280Z,995.0
2018-11-07T19:51:15.723Z,995.0
2018-11-07T19:54:15.864Z,995.0
2018-11-07T19:57:15.218Z,995.0
2018-11-07T20:00:15.311Z,995.0
2018-11-07T20:03:15.471Z,995.1
2018-11-07T20:06:15.589Z,995.1
2018-11-07T20:09:15.607Z,995.2
2018-11-07T20:12:16.017Z,995.2
2018-11-07T20:15:15.547Z,995.2
2018-11-07T20:18:15.796Z,995.3
2018-11-07T20:21:15.892Z,995.3
2018-11-07T20:24:15.089Z,995.3
2018-11-07T20:27:15.091Z,995.5
2018-11-07T20:30:15.218Z,995.5
2018-11-07T20:33:15.468Z,995.6
2018-11-07T20:36:15.676Z,995.6
2018-11-07T20:39:15.142Z,995.7
2018-11-07T20:42:15.234Z,995.7
2018-11-07T20:45:15.760Z,995.7
2018-11-07T20:48:15.946Z,995.8
2018-11-07T20:51:15.050Z,995.9
2018-11-07T20:54:15.239Z,996.0
2018-11-07T20:57:15.408Z,996.0
2018-11-07T21:00:15.686Z,996.0
2018-11-07T21:03:15.683Z,996.0
2018-11-07T21:06:16.217Z,996.0
2018-11-07T21:09:15.454Z,996.0
2018-11-07T21:12:15.467Z,996.1
2018-11-07T21:15:15.363Z,996.1
2018-11-07T21:18:15.766Z,996.1
2018-11-07T21:21:15.228Z,996.1
2018-11-07T21:24:15.360Z,996.1
2018-11-07T21:27:15.538Z,996.2
2018-11-07T21:30:15.520Z,996.2
2018-11-07T21:33:15.772Z,996.2
2018-11-07T21:36:15.945Z,996.2
2018-11-07T21:39:15.791Z,996.2
2018-11-07T21:42:15.204Z,996.2
2018-11-07T21:45:15.284Z,996.2
2018-11-07T21:48:15.532Z,996.3
2018-11-07T21:51:15.175Z,996.3
2018-11-07T21:54:15.520Z,996.3
2018-11-07T21:57:15.908Z,996.3
2018-11-07T22:00:15.262Z,996.4
2018-11-07T22:03:15.512Z,996.5
2018-11-07T22:06:16.063Z,996.5
2018-11-07T22:09:15.795Z,996.5
2018-11-07T22:12:15.102Z,996.5
2018-11-07T22:15:15.215Z,996.5
2018-11-07T22:18:15.536Z,996.5
2018-11-07T22:21:15.623Z,996.5
2018-11-07T22:24:15.733Z,996.5
2018-11-07T22:27:15.804Z,996.5
2018-11-07T22:30:15.130Z,996.6
2018-11-07T22:33:15.794Z,996.5
2018-11-07T22:36:14.991Z,996.5
2018-11-07T22:39:15.872Z,996.6
2018-11-07T22:42:15.874Z,996.6
2018-11-07T22:45:15.338Z,996.6
2018-11-07T22:48:15.806Z,996.7
2018-11-07T22:51:15.436Z,996.7
2018-11-07T22:54:15.260Z,996.7
2018-11-07T22:57:15.491Z,996.8
2018-11-07T23:00:15.681Z,996.8
2018-11-07T23:03:15.263Z,996.9
2018-11-07T23:06:15.525Z,996.9
2018-11-07T23:09:15.785Z,996.9
2018-11-07T23:12:15.929Z,997.0
2018-11-07T23:15:15.732Z,997.0
2018-11-07T23:18:15.701Z,997.0
2018-11-07T23:21:15.900Z,997.0
2018-11-07T23:24:15.107Z,997.0
2018-11-07T23:27:15.161Z,997.0
2018-11-07T23:30:15.609Z,997.0
2018-11-07T23:33:15.599Z,997.1
2018-11-07T23:36:15.706Z,997.1
2018-11-07T23:39:15.802Z,997.1
2018-11-07T23:42:15.757Z,997.1
2018-11-07T23:45:15.726Z,997.2
2018-11-07T23:48:14.973Z,997.2
2018-11-07T23:51:15.150Z,997.2
2018-11-07T23:54:15.255Z,997.2
2018-11-07T23:57:15.714Z,997.3
